X  Close Metar Aviation Weather Data     EBBR Brussels Airport
Temperature
15°C Temperature
13°C Dewpoint
88% Humidity



Wind
13 KM/H
8 MPH
4 M/S
7 KTS



20°
NNE
Current Conditions

Light Rain Light Rain
Pressure 1007.92 (hPa) - 29.76 (inHg)
Visibility 6.2 (mile) - 10 (km)
Airport
Airport-code EBBR

Location: Brussels Airport
Distance: 34 (km)

Metar:
EBBR 210820Z 02007KT 350V050 9999 -RA FEW005 BKN008 15/13 Q1008 NOSIG

Time: 21-06-2021 10:20 CEST